nws-alerts: Checking more than four warning/county codes can delay the loading of your pages. You should use a cron job to get the data.

Nearby METAR Reports

 

KFCI - Richmond/Chester, Virginia, USA
Distance from station: ESE 7mi, 11km
Updated: Thu, 25-Feb-2021 6:56pm EST
NOT Current
Clear
Clear
 Wind from calm
Wind: Calm
Temperature: 46°F , 8°C
Dew Point: 25°F , -4°C
Humidity: 43%
Barometer: 30.23 inHg , 1023.7 hPa
Clouds: Clear
Visibility: 10 miles , 16 km
2021/02/25 23:56 KFCI 252356Z AUTO 00000KT 10SM CLR 08/M04 A3023 RMK AO2 SLP247 T00831039 10150 20083 53014
KRIC - Richmond, Virginia, USA
Distance from station: ENE 19mi, 30km
Updated: Mon, 01-Mar-2021 1:54am EST
Light drizzle, Fog, Overcast
Light drizzle, Fog, Overcast
 Wind from NW
Wind: NW 3 mph , 6 km/h
Temperature: 52°F , 11°C
Dew Point: 52°F , 11°C
Humidity: 100%
Barometer: 29.82 inHg , 1009.8 hPa
Summary: Light drizzle, Fog
Clouds: Overcast
Visibility: 1/4 mile , 0.4 km
Cloud details: Overcast 200 ft
2021/03/01 06:54 KRIC 010654Z 32003KT 1/4SM R34/1600V2000FT -DZ FG VV002 11/11 A2982 RMK AO2 SLP104 P0000 T01110106
 
KPTB - Petersburg, Virginia, USA
Distance from station: SSE 19mi, 31km
Updated: Mon, 01-Mar-2021 2:35am EST
Mostly cloudy
Mostly cloudy
 Wind from NW
Wind: NW 6 mph , 9 km/h
Temperature: 55°F , 13°C
Dew Point: 54°F , 12°C
Humidity: 94%
Barometer: 29.82 inHg , 1009.8 hPa
Clouds: Mostly cloudy
Visibility: 7 miles , 11 km
Cloud details: Partly cloudy 200 ft
Mostly cloudy 800 ft
Mostly cloudy 5500 ft
2021/03/01 07:35 KPTB 010735Z AUTO 32005KT 7SM SCT002 BKN008 BKN055 13/12 A2982 RMK AO2 T01270121
KOFP - Richmond/Hanover, Virginia, USA
Distance from station: NNE 22mi, 36km
Updated: Mon, 01-Mar-2021 2:24am EST
Fog, Overcast
Fog, Overcast
 Wind from calm
Wind: Calm
Temperature: 52°F , 11°C
Dew Point: 48°F , 9°C
Humidity: 88%
Barometer: 29.81 inHg , 1009.5 hPa
Summary: Fog
Clouds: Overcast
Visibility: 1/2 mile , 0.8 km
Cloud details: Overcast 400 ft
2021/03/01 07:24 KOFP 010724Z AUTO 00000KT 1/2SM FG VV004 11/09 A2981 RMK AO2 T01060094
 
KW96 - Quinton, Virginia, USA
Distance from station: E 28mi, 46km
Updated: Mon, 01-Mar-2021 2:35am EST
Overcast
Overcast
 Wind from calm
Wind: Calm
Temperature: 52°F , 11°C
Dew Point: 52°F , 11°C
Humidity: 100%
Barometer: 29.79 inHg , 1008.8 hPa
Clouds: Overcast
Visibility: 1/2 mile , 0.8 km
Cloud details: Overcast 300 ft
2021/03/01 07:35 KW96 010735Z AUTO 00000KT 1/2SM OVC003 11/11 A2979 RMK AO1 T01080108
KBKT - Blackstone Army, Virginia, USA
Distance from station: SW 30mi, 48km
Updated: Mon, 01-Mar-2021 2:35am EST
Overcast
Overcast
 Wind from calm
Wind: Calm
Barometer: 29.80 inHg , 1009.1 hPa
Clouds: Overcast
Visibility: 7 miles , 11 km
Cloud details: Mostly cloudy 5000 ft
Overcast 10000 ft
2021/03/01 07:35 KBKT 010735Z AUTO 00000KT 7SM BKN050 OVC100 A2980 RMK AO1
 
KW81 - Crewe, Virginia, USA
Distance from station: SW 30mi, 49km
Updated: Sat, 13-Feb-2021 4:15pm EST
NOT Current

 
2021/02/13 21:15 KW81 132115Z AUTO RMK AO1
K7W4 - Bumpass, Virginia, USA
Distance from station: N 38mi, 61km
Updated: Sat, 13-Feb-2021 3:15pm EST
NOT Current
Overcast
Overcast
 Wind from NNE
Wind: NNE 6 mph , 9 km/h
Temperature: 30°F , -1°C
Wind Chill: 24°F , -4°C
Dew Point: 28°F , -2°C
Humidity: 93%
Barometer: 30.13 inHg , 1020.3 hPa
Clouds: Overcast
Visibility: 7 miles , 11 km
Cloud details: Overcast 600 ft
2021/02/13 20:15 K7W4 132015Z AUTO 02005KT 7SM OVC006 M01/M02 A3013 RMK AO1 P0001 T10101016
 
KFVX - Farmville, Virginia, USA
Distance from station: W 43mi, 69km
Updated: Mon, 01-Mar-2021 2:35am EST
Mist, Overcast
Mist, Overcast
 Wind from calm
Wind: Calm
Temperature: 52°F , 11°C
Dew Point: 52°F , 11°C
Humidity: 100%
Barometer: 29.79 inHg , 1008.8 hPa
Summary: Mist
Clouds: Overcast
Visibility: 3 miles , 5 km
Cloud details: Overcast 3600 ft
2021/03/01 07:35 KFVX 010735Z AUTO 00000KT 3SM BR OVC036 11/11 A2979 RMK AO2 T01070106
KW31 - Kenbridge, Virginia, USA
Distance from station: SW 43mi, 70km
Updated: Mon, 01-Mar-2021 2:35am EST
Partly cloudy
Partly cloudy
 Wind from calm
Wind: Calm
Temperature: 55°F , 13°C
Dew Point: 55°F , 13°C
Humidity: 100%
Barometer: 29.81 inHg , 1009.5 hPa
Clouds: Partly cloudy
Visibility: 10 miles , 16 km
Cloud details: Partly cloudy 5000 ft
Partly cloudy 10000 ft
2021/03/01 07:35 KW31 010735Z AUTO 00000KT 10SM SCT050 SCT100 13/13 A2981 RMK AO1 T01300130
 
KLKU - Louisa, Virginia, USA
Distance from station: NNW 44mi, 72km
Updated: Mon, 01-Mar-2021 2:35am EST
Fog, Overcast
Fog, Overcast
 Wind from calm
Wind: Calm
Temperature: 48°F , 9°C
Barometer: 29.83 inHg , 1010.2 hPa
Summary: Fog
Clouds: Overcast
Visibility: 1/2 mile , 0.8 km
Cloud details: Overcast 300 ft
2021/03/01 07:35 KLKU 010735Z AUTO 00000KT 1/2SM FG OVC003 09/ A2983 RMK AO2 T0088////
KLVL - Lawrenceville, Virginia, USA
Distance from station: S 46mi, 75km
Updated: Mon, 01-Mar-2021 2:35am EST
Partly cloudy
Partly cloudy
 Wind from S
Wind: S 6 mph , 9 km/h
Temperature: 61°F , 16°C
Dew Point: 61°F , 16°C
Humidity: 100%
Barometer: 29.81 inHg , 1009.5 hPa
Clouds: Partly cloudy
Visibility: 10 miles , 16 km
Cloud details: Partly cloudy 11000 ft
2021/03/01 07:35 KLVL 010735Z AUTO 18005KT 10SM SCT110 16/16 A2981 RMK AO1 T01610156
 
KAKQ - Norfolk/Wakefld, Virginia, USA
Distance from station: SE 47mi, 75km
Updated: Mon, 01-Mar-2021 1:54am EST
Clear
Clear
 Wind from SSW
Wind: SSW 9 mph , 15 km/h
Temperature: 64°F , 18°C
Dew Point: 63°F , 17°C
Humidity: 94%
Barometer: 29.82 inHg , 1009.8 hPa
Clouds: Clear
Visibility: 10 miles , 16 km
2021/03/01 06:54 KAKQ 010654Z AUTO 21008KT 10SM CLR 18/17 A2982 RMK AO2 SLP098 T01780172
KFYJ - West Point, Virginia, USA
Distance from station: E 48mi, 78km
Updated: Mon, 01-Mar-2021 2:35am EST
Overcast
Overcast
 Wind from calm
Wind: Calm
Temperature: 52°F , 11°C
Dew Point: 52°F , 11°C
Humidity: 100%
Barometer: 29.80 inHg , 1009.1 hPa
Clouds: Overcast
Visibility: 2 miles , 3 km
Cloud details: Overcast 300 ft
2021/03/01 07:35 KFYJ 010735Z AUTO 00000KT 2SM OVC003 11/11 A2980 RMK AO1 T01090107